createdAt,value
2022-09-23T00:01:20.397Z,8.00
2022-09-23T00:03:49.191Z,8.00
2022-09-23T00:06:22.418Z,8.00
2022-09-23T00:08:50.684Z,8.10
2022-09-23T00:11:21.547Z,8.10
2022-09-23T00:13:52.299Z,8.10
2022-09-23T00:16:24.098Z,8.20
2022-09-23T00:18:51.578Z,8.10
2022-09-23T00:21:21.157Z,8.10
2022-09-23T00:23:49.140Z,8.10
2022-09-23T00:26:19.001Z,8.10
2022-09-23T00:28:47.370Z,8.10
2022-09-23T00:31:26.445Z,8.00
2022-09-23T00:34:01.349Z,7.90
2022-09-23T00:36:30.315Z,7.90
2022-09-23T00:38:58.935Z,7.90
2022-09-23T00:41:26.603Z,7.90
2022-09-23T00:43:57.441Z,7.90
2022-09-23T00:46:34.005Z,7.90
2022-09-23T00:49:07.073Z,7.90
2022-09-23T00:51:40.132Z,7.90
2022-09-23T00:54:07.978Z,7.90
2022-09-23T00:56:36.982Z,7.90
2022-09-23T00:59:06.926Z,7.90
2022-09-23T01:01:34.403Z,7.80
2022-09-23T01:04:02.187Z,7.90
2022-09-23T01:06:30.843Z,7.90
2022-09-23T01:08:58.153Z,7.80
2022-09-23T01:11:31.440Z,7.80
2022-09-23T01:14:16.980Z,7.80
2022-09-23T01:17:07.325Z,7.80
2022-09-23T01:19:57.953Z,7.70
2022-09-23T01:22:35.725Z,7.70
2022-09-23T01:25:32.993Z,7.60
2022-09-23T01:28:00.258Z,7.60
2022-09-23T01:30:40.867Z,7.60
2022-09-23T01:33:20.056Z,7.60
2022-09-23T01:35:58.791Z,7.60
2022-09-23T01:38:59.632Z,7.60
2022-09-23T01:41:42.637Z,7.50
2022-09-23T01:44:15.527Z,7.60
2022-09-23T01:46:50.676Z,7.60
2022-09-23T01:49:30.511Z,7.60
2022-09-23T01:52:05.444Z,7.60
2022-09-23T01:54:46.483Z,7.60
2022-09-23T01:57:39.742Z,7.60
2022-09-23T02:00:12.797Z,7.60
2022-09-23T02:02:57.191Z,7.70
2022-09-23T02:05:34.264Z,7.70
2022-09-23T02:08:19.861Z,7.70
2022-09-23T02:10:53.163Z,7.70
2022-09-23T02:13:46.524Z,7.70
2022-09-23T02:16:26.133Z,7.70
2022-09-23T02:18:58.313Z,7.70
2022-09-23T02:21:33.891Z,7.60
2022-09-23T02:24:27.551Z,7.70
2022-09-23T02:27:15.129Z,7.70
2022-09-23T02:30:05.821Z,7.60
2022-09-23T02:32:58.602Z,7.60
2022-09-23T02:35:58.599Z,7.70
2022-09-23T02:38:39.120Z,7.70
2022-09-23T02:41:14.930Z,7.80
2022-09-23T02:44:02.894Z,7.70
2022-09-23T02:46:31.135Z,7.70
2022-09-23T02:49:04.360Z,7.70
2022-09-23T02:51:38.095Z,7.70
2022-09-23T02:54:10.231Z,7.70
2022-09-23T02:56:37.524Z,7.70
2022-09-23T02:59:06.165Z,7.60
2022-09-23T03:02:13.603Z,7.70
2022-09-23T03:05:05.147Z,7.70
2022-09-23T03:08:07.848Z,7.70
2022-09-23T03:10:47.107Z,7.70
2022-09-23T03:13:29.475Z,7.70
2022-09-23T03:16:11.848Z,7.70
2022-09-23T03:19:06.391Z,7.70
2022-09-23T03:21:58.544Z,7.60
2022-09-23T03:24:27.452Z,7.70
2022-09-23T03:26:55.578Z,7.70
2022-09-23T03:29:24.444Z,7.60
2022-09-23T03:31:53.067Z,7.60
2022-09-23T03:34:24.877Z,7.60
2022-09-23T03:37:07.475Z,7.50
2022-09-23T03:39:42.891Z,7.50
2022-09-23T03:42:25.031Z,7.50
2022-09-23T03:44:56.343Z,7.50
2022-09-23T03:47:27.226Z,7.50
2022-09-23T03:49:56.780Z,7.50
2022-09-23T03:52:25.737Z,7.50
2022-09-23T03:54:53.625Z,7.50
2022-09-23T03:57:22.358Z,7.40
2022-09-23T03:59:53.080Z,7.40
2022-09-23T04:02:21.097Z,7.40
2022-09-23T04:04:48.654Z,7.30
2022-09-23T04:07:16.410Z,7.30
2022-09-23T04:09:44.197Z,7.30
2022-09-23T04:12:16.108Z,7.30
2022-09-23T04:14:44.829Z,7.30
2022-09-23T04:17:14.253Z,7.20
2022-09-23T04:19:41.743Z,7.20
2022-09-23T04:22:09.514Z,7.20
2022-09-23T04:24:37.402Z,7.20
2022-09-23T04:27:05.940Z,7.20
2022-09-23T04:29:33.366Z,7.10
2022-09-23T04:32:00.761Z,7.10
2022-09-23T04:34:28.749Z,7.10
2022-09-23T04:36:56.081Z,7.10
2022-09-23T04:39:23.457Z,7.20
2022-09-23T04:41:50.770Z,7.10
2022-09-23T04:44:18.838Z,7.10
2022-09-23T04:46:47.531Z,7.20
2022-09-23T04:49:15.898Z,7.20
2022-09-23T04:51:43.634Z,7.20
2022-09-23T04:54:12.473Z,7.20
2022-09-23T04:56:39.990Z,7.20
2022-09-23T04:59:08.694Z,7.10
2022-09-23T05:01:36.479Z,7.10
2022-09-23T05:04:10.097Z,7.10
2022-09-23T05:06:38.224Z,7.10
2022-09-23T05:09:07.986Z,7.00
2022-09-23T05:11:35.804Z,7.00
2022-09-23T05:14:03.795Z,6.90
2022-09-23T05:16:31.188Z,6.90
2022-09-23T05:18:59.414Z,7.00
2022-09-23T05:21:29.235Z,6.90
2022-09-23T05:23:59.083Z,6.90
2022-09-23T05:26:29.487Z,7.00
2022-09-23T05:28:57.335Z,7.00
2022-09-23T05:31:27.421Z,7.10
2022-09-23T05:34:01.079Z,7.20
2022-09-23T05:36:33.205Z,7.20
2022-09-23T05:39:02.556Z,7.20
2022-09-23T05:41:30.203Z,7.20
2022-09-23T05:43:59.666Z,7.20
2022-09-23T05:46:29.974Z,7.20
2022-09-23T05:49:02.199Z,7.30
2022-09-23T05:51:31.608Z,7.30
2022-09-23T05:54:02.825Z,7.40
2022-09-23T05:56:31.027Z,7.40
2022-09-23T05:59:00.380Z,7.50
2022-09-23T06:01:32.535Z,7.60
2022-09-23T06:04:01.733Z,7.60
2022-09-23T06:06:31.186Z,7.60
2022-09-23T06:08:59.814Z,7.60
2022-09-23T06:11:30.191Z,7.60
2022-09-23T06:14:02.252Z,7.60
2022-09-23T06:16:32.967Z,7.60
2022-09-23T06:19:05.880Z,7.60
2022-09-23T06:21:36.857Z,7.60
2022-09-23T06:24:05.436Z,7.60
2022-09-23T06:26:37.828Z,7.60
2022-09-23T06:29:11.692Z,7.60
2022-09-23T06:31:42.226Z,7.70
2022-09-23T06:34:13.672Z,7.70
2022-09-23T06:36:45.315Z,7.60
2022-09-23T06:39:14.559Z,7.60
2022-09-23T06:41:42.343Z,7.60
2022-09-23T06:44:14.385Z,7.60
2022-09-23T06:46:42.100Z,7.70
2022-09-23T06:49:09.654Z,7.90
2022-09-23T06:51:36.958Z,8.20
2022-09-23T06:54:04.663Z,8.60
2022-09-23T06:56:37.765Z,8.90
2022-09-23T06:59:09.209Z,9.30
2022-09-23T07:01:36.623Z,10.10
2022-09-23T07:04:05.372Z,10.70
2022-09-23T07:06:32.941Z,11.30
2022-09-23T07:09:00.985Z,11.50
2022-09-23T07:11:28.644Z,12.00
2022-09-23T07:13:55.949Z,13.10
2022-09-23T07:16:23.358Z,13.90
2022-09-23T07:18:53.718Z,14.50
2022-09-23T07:21:26.479Z,13.90
2022-09-23T07:23:55.166Z,15.20
2022-09-23T07:26:22.804Z,16.60
2022-09-23T07:29:04.531Z,17.50
2022-09-23T07:31:39.353Z,16.90
2022-09-23T07:34:09.839Z,17.60
2022-09-23T07:36:41.071Z,18.80
2022-09-23T07:39:11.176Z,19.40
2022-09-23T07:41:39.023Z,19.70
2022-09-23T07:44:07.022Z,19.00
2022-09-23T07:46:36.134Z,19.00
2022-09-23T07:49:05.236Z,18.80
2022-09-23T07:51:36.875Z,18.70
2022-09-23T07:54:08.291Z,18.90
2022-09-23T07:56:36.823Z,18.90
2022-09-23T07:59:05.775Z,18.80
2022-09-23T08:01:50.775Z,18.70
2022-09-23T08:04:21.949Z,19.00
2022-09-23T08:06:53.477Z,19.30
2022-09-23T08:09:23.793Z,19.50
2022-09-23T08:11:52.466Z,19.70
2022-09-23T08:14:22.250Z,19.70
2022-09-23T08:16:50.033Z,19.90
2022-09-23T08:19:17.689Z,20.30
2022-09-23T08:21:47.369Z,21.30
2022-09-23T08:24:19.823Z,22.30
2022-09-23T08:26:48.713Z,22.50
2022-09-23T08:29:18.126Z,22.40
2022-09-23T08:31:45.938Z,23.30
2022-09-23T08:34:13.772Z,23.40
2022-09-23T08:36:41.094Z,24.00
2022-09-23T08:39:09.958Z,24.60
2022-09-23T08:42:01.890Z,25.00
2022-09-23T08:44:50.442Z,25.40
2022-09-23T08:47:49.578Z,25.00
2022-09-23T08:50:27.343Z,25.30
2022-09-23T08:53:12.983Z,25.70
2022-09-23T08:55:49.495Z,26.20
2022-09-23T08:58:43.849Z,26.50
2022-09-23T09:01:25.300Z,26.30
2022-09-23T09:03:56.033Z,26.60
2022-09-23T09:06:53.512Z,27.10
2022-09-23T09:09:32.588Z,27.50
2022-09-23T09:12:26.920Z,28.10
2022-09-23T09:15:25.175Z,28.00
2022-09-23T09:18:01.212Z,28.20
2022-09-23T09:20:45.275Z,28.10
2022-09-23T09:23:15.337Z,28.30
2022-09-23T09:25:55.700Z,28.40
2022-09-23T09:28:39.123Z,28.90
2022-09-23T09:31:36.114Z,29.50
2022-09-23T09:34:15.795Z,30.20
2022-09-23T09:36:53.861Z,30.30
2022-09-23T09:39:25.998Z,30.20
2022-09-23T09:41:59.442Z,30.10
2022-09-23T09:44:44.983Z,30.50
2022-09-23T09:47:28.631Z,32.00
2022-09-23T09:50:09.971Z,32.50
2022-09-23T09:52:44.131Z,33.20
2022-09-23T09:55:15.002Z,33.70
2022-09-23T09:58:05.725Z,33.60
2022-09-23T10:00:33.082Z,33.10
2022-09-23T10:03:22.180Z,33.30
2022-09-23T10:05:52.178Z,33.30
2022-09-23T10:08:25.117Z,33.20
2022-09-23T10:11:00.108Z,32.20
2022-09-23T10:13:30.132Z,32.40
2022-09-23T10:16:03.110Z,31.30
2022-09-23T10:18:49.754Z,30.60
2022-09-23T10:21:24.247Z,31.10
2022-09-23T10:24:01.605Z,31.30
2022-09-23T10:26:32.414Z,31.70
2022-09-23T10:29:20.004Z,31.10
2022-09-23T10:31:47.659Z,30.80
2022-09-23T10:34:26.419Z,30.60
2022-09-23T10:37:13.770Z,30.40
2022-09-23T10:40:00.030Z,29.20
2022-09-23T10:43:09.965Z,28.20
2022-09-23T10:45:59.971Z,27.40
2022-09-23T10:48:36.541Z,27.20
2022-09-23T10:51:41.148Z,26.80
2022-09-23T10:54:51.253Z,26.40
2022-09-23T10:57:57.691Z,25.90
2022-09-23T11:00:32.019Z,26.20
2022-09-23T11:03:32.037Z,26.00
2022-09-23T11:06:02.098Z,25.80
2022-09-23T11:08:50.901Z,25.90
2022-09-23T11:11:40.296Z,25.90
2022-09-23T11:14:38.820Z,26.30
2022-09-23T11:17:26.161Z,26.20
2022-09-23T11:20:21.800Z,26.20
2022-09-23T11:23:18.659Z,25.90
2022-09-23T11:26:02.485Z,25.90
2022-09-23T11:28:50.710Z,26.00
2022-09-23T11:31:34.902Z,25.80
2022-09-23T11:34:08.964Z,25.40
2022-09-23T11:36:59.196Z,25.30
2022-09-23T11:39:41.212Z,25.10
2022-09-23T11:42:19.632Z,24.90
2022-09-23T11:44:54.325Z,25.20
2022-09-23T11:47:28.156Z,24.70
2022-09-23T11:50:01.611Z,24.70
2022-09-23T11:52:38.943Z,24.70
2022-09-23T11:55:20.787Z,25.00
2022-09-23T11:57:51.439Z,25.20
2022-09-23T12:00:23.019Z,25.70
2022-09-23T12:03:18.289Z,26.40
2022-09-23T12:05:50.853Z,27.10
2022-09-23T12:08:28.552Z,28.00
2022-09-23T12:11:01.462Z,28.30
2022-09-23T12:13:43.737Z,28.50
2022-09-23T12:16:33.186Z,28.40
2022-09-23T12:19:38.598Z,28.30
2022-09-23T12:22:08.982Z,27.60
2022-09-23T12:25:10.270Z,27.30
2022-09-23T12:27:45.510Z,26.30
2022-09-23T12:30:18.781Z,26.00
2022-09-23T12:32:46.615Z,26.10
2022-09-23T12:35:32.094Z,26.50
2022-09-23T12:38:01.327Z,26.10
2022-09-23T12:40:36.392Z,25.60
2022-09-23T12:43:03.857Z,25.20
2022-09-23T12:45:32.470Z,25.30
2022-09-23T12:48:04.891Z,25.50
2022-09-23T12:50:54.352Z,25.90
2022-09-23T12:53:47.870Z,25.50
2022-09-23T12:56:38.607Z,25.10
2022-09-23T12:59:21.453Z,25.00
2022-09-23T13:01:49.616Z,25.10
2022-09-23T13:05:15.802Z,24.70
2022-09-23T13:07:47.179Z,24.50
2022-09-23T13:10:40.219Z,24.20
2022-09-23T13:13:18.018Z,24.10
2022-09-23T13:15:46.743Z,24.20
2022-09-23T13:18:20.531Z,24.10
2022-09-23T13:20:49.935Z,24.10
2022-09-23T13:23:23.363Z,24.10
2022-09-23T13:26:08.775Z,23.90
2022-09-23T13:28:55.989Z,23.70
2022-09-23T13:31:23.532Z,23.70
2022-09-23T13:34:04.325Z,24.00
2022-09-23T13:36:46.867Z,23.70
2022-09-23T13:39:26.481Z,23.20
2022-09-23T13:42:01.760Z,22.70
2022-09-23T13:44:29.654Z,22.70
2022-09-23T13:47:00.447Z,22.50
2022-09-23T13:49:35.349Z,22.30
2022-09-23T13:52:03.813Z,22.30
2022-09-23T13:54:35.416Z,22.20
2022-09-23T13:57:03.529Z,22.00
2022-09-23T13:59:37.736Z,21.80
2022-09-23T14:02:12.532Z,21.70
2022-09-23T14:04:40.407Z,21.60
2022-09-23T14:07:09.539Z,21.60
2022-09-23T14:09:41.100Z,21.20
2022-09-23T14:12:09.907Z,21.20
2022-09-23T14:14:40.362Z,21.20
2022-09-23T14:17:08.794Z,21.50
2022-09-23T14:19:37.239Z,21.50
2022-09-23T14:22:08.207Z,21.30
2022-09-23T14:24:39.472Z,21.20
2022-09-23T14:27:06.720Z,21.10
2022-09-23T14:29:35.174Z,21.00
2022-09-23T14:32:10.994Z,20.90
2022-09-23T14:35:04.913Z,20.70
2022-09-23T14:37:56.847Z,20.70
2022-09-23T14:40:30.518Z,20.60
2022-09-23T14:43:28.152Z,20.50
2022-09-23T14:45:57.640Z,20.30
2022-09-23T14:48:33.654Z,20.20
2022-09-23T14:51:05.409Z,20.30
2022-09-23T14:53:46.301Z,20.30
2022-09-23T14:56:17.444Z,20.20
2022-09-23T14:59:00.081Z,20.10
2022-09-23T15:01:38.667Z,20.00
2022-09-23T15:04:13.716Z,19.90
2022-09-23T15:06:49.841Z,19.80
2022-09-23T15:09:23.512Z,19.70
2022-09-23T15:11:53.148Z,19.60
2022-09-23T15:14:37.389Z,19.50
2022-09-23T15:17:32.459Z,19.30
2022-09-23T15:20:03.666Z,19.30
2022-09-23T15:22:31.328Z,19.40
2022-09-23T15:25:19.916Z,19.40
2022-09-23T15:28:16.789Z,19.30
2022-09-23T15:30:45.504Z,19.40
2022-09-23T15:33:14.974Z,19.30
2022-09-23T15:35:46.744Z,19.20
2022-09-23T15:38:14.390Z,19.20
2022-09-23T15:40:42.139Z,19.10
2022-09-23T15:43:25.006Z,18.90
2022-09-23T15:45:53.700Z,18.80
2022-09-23T15:48:29.469Z,18.90
2022-09-23T15:50:59.036Z,18.90
2022-09-23T15:53:27.747Z,18.80
2022-09-23T15:55:55.252Z,18.60
2022-09-23T15:58:23.490Z,18.50
2022-09-23T16:00:56.228Z,18.40
2022-09-23T16:03:25.749Z,18.30
2022-09-23T16:05:56.471Z,18.30
2022-09-23T16:08:23.945Z,18.20
2022-09-23T16:10:52.014Z,18.20
2022-09-23T16:13:19.549Z,18.10
2022-09-23T16:15:47.007Z,17.90
2022-09-23T16:18:14.602Z,17.90
2022-09-23T16:20:46.303Z,17.70
2022-09-23T16:23:40.090Z,17.50
2022-09-23T16:26:16.359Z,17.40
2022-09-23T16:28:45.332Z,17.30
2022-09-23T16:31:16.102Z,17.20
2022-09-23T16:33:45.369Z,17.10
2022-09-23T16:36:16.646Z,17.10
2022-09-23T16:38:44.400Z,17.00
2022-09-23T16:41:11.871Z,16.90
2022-09-23T16:43:41.018Z,16.80
2022-09-23T16:46:10.248Z,16.70
2022-09-23T16:48:41.046Z,16.60
2022-09-23T16:51:14.659Z,16.50
2022-09-23T16:53:42.682Z,16.40
2022-09-23T16:56:11.438Z,16.30
2022-09-23T16:58:40.179Z,16.30
2022-09-23T17:01:46.245Z,16.10
2022-09-23T17:04:16.830Z,16.00
2022-09-23T17:06:53.511Z,15.90
2022-09-23T17:09:23.201Z,15.80
2022-09-23T17:12:25.875Z,15.70
2022-09-23T17:14:54.040Z,15.60
2022-09-23T17:17:21.478Z,15.50
2022-09-23T17:19:48.820Z,15.40
2022-09-23T17:22:16.210Z,15.30
2022-09-23T17:24:43.625Z,15.20
2022-09-23T17:27:11.184Z,15.10
2022-09-23T17:29:38.537Z,15.00
2022-09-23T17:32:06.265Z,15.00
2022-09-23T17:34:34.455Z,15.00
2022-09-23T17:37:02.571Z,14.90
2022-09-23T17:39:31.585Z,14.90
2022-09-23T17:41:59.426Z,14.90
2022-09-23T17:44:26.947Z,14.90
2022-09-23T17:46:54.345Z,14.80
2022-09-23T17:49:24.092Z,14.80
2022-09-23T17:51:51.671Z,14.80
2022-09-23T17:54:18.986Z,14.70
2022-09-23T17:56:46.269Z,14.70
2022-09-23T17:59:13.842Z,14.60
2022-09-23T18:01:41.296Z,14.50
2022-09-23T18:04:08.818Z,14.50
2022-09-23T18:06:37.326Z,14.40
2022-09-23T18:09:06.877Z,14.40
2022-09-23T18:11:43.259Z,14.40
2022-09-23T18:14:22.106Z,14.40
2022-09-23T18:16:52.288Z,14.40
2022-09-23T18:19:22.184Z,14.40
2022-09-23T18:21:51.997Z,14.40
2022-09-23T18:24:31.705Z,14.40
2022-09-23T18:27:00.937Z,14.40
2022-09-23T18:29:28.563Z,14.40
2022-09-23T18:31:56.041Z,14.40
2022-09-23T18:34:24.276Z,14.40
2022-09-23T18:36:51.879Z,14.40
2022-09-23T18:39:19.270Z,14.30
2022-09-23T18:41:49.180Z,14.30
2022-09-23T18:44:16.993Z,14.30
2022-09-23T18:46:44.814Z,14.30
2022-09-23T18:49:30.705Z,14.30
2022-09-23T18:51:59.056Z,14.30
2022-09-23T18:54:28.104Z,14.20
2022-09-23T18:56:56.541Z,14.20
2022-09-23T18:59:27.785Z,14.20
2022-09-23T19:01:56.703Z,14.10
2022-09-23T19:04:25.763Z,14.10
2022-09-23T19:06:56.311Z,14.10
2022-09-23T19:09:24.342Z,14.10
2022-09-23T19:11:52.602Z,14.10
2022-09-23T19:14:20.514Z,14.10
2022-09-23T19:16:49.339Z,14.10
2022-09-23T19:19:17.714Z,14.00
2022-09-23T19:21:45.217Z,14.00
2022-09-23T19:24:15.764Z,14.00
2022-09-23T19:26:43.752Z,14.00
2022-09-23T19:29:17.178Z,13.90
2022-09-23T19:31:45.137Z,13.90
2022-09-23T19:34:15.342Z,13.90
2022-09-23T19:36:45.110Z,13.90
2022-09-23T19:39:18.130Z,13.90
2022-09-23T19:41:46.349Z,13.90
2022-09-23T19:44:14.120Z,13.80
2022-09-23T19:46:45.595Z,13.80
2022-09-23T19:49:13.317Z,13.80
2022-09-23T19:51:41.355Z,13.80
2022-09-23T19:54:09.126Z,13.80
2022-09-23T19:56:38.507Z,13.70
2022-09-23T19:59:09.646Z,13.70
2022-09-23T20:01:37.720Z,13.60
2022-09-23T20:04:05.668Z,13.60
2022-09-23T20:06:35.373Z,13.60
2022-09-23T20:09:04.782Z,13.50
2022-09-23T20:11:33.517Z,13.50
2022-09-23T20:14:05.743Z,13.40
2022-09-23T20:16:35.741Z,13.30
2022-09-23T20:19:05.053Z,13.30
2022-09-23T20:21:33.730Z,13.30
2022-09-23T20:24:05.191Z,13.30
2022-09-23T20:26:52.345Z,13.20
2022-09-23T20:29:19.724Z,13.20
2022-09-23T20:31:47.481Z,13.20
2022-09-23T20:34:15.163Z,13.10
2022-09-23T20:36:42.609Z,13.10
2022-09-23T20:39:10.350Z,13.10
2022-09-23T20:41:39.258Z,13.10
2022-09-23T20:44:14.108Z,13.10
2022-09-23T20:46:48.230Z,13.10
2022-09-23T20:49:17.500Z,13.10
2022-09-23T20:51:45.117Z,13.00
2022-09-23T20:54:12.452Z,13.00
2022-09-23T20:56:39.789Z,13.00
2022-09-23T20:59:07.114Z,12.90
2022-09-23T21:01:36.399Z,12.90
2022-09-23T21:04:05.726Z,12.80
2022-09-23T21:06:37.185Z,12.80
2022-09-23T21:09:05.985Z,12.80
2022-09-23T21:11:33.950Z,12.70
2022-09-23T21:14:02.142Z,12.70
2022-09-23T21:16:30.371Z,12.60
2022-09-23T21:18:58.057Z,12.60
2022-09-23T21:21:25.880Z,12.50
2022-09-23T21:23:53.267Z,12.50
2022-09-23T21:26:23.222Z,12.40
2022-09-23T21:28:52.859Z,12.40
2022-09-23T21:31:24.045Z,12.40
2022-09-23T21:34:02.995Z,12.40
2022-09-23T21:36:32.751Z,12.30
2022-09-23T21:39:02.274Z,12.30
2022-09-23T21:41:29.912Z,12.20
2022-09-23T21:43:57.705Z,12.20
2022-09-23T21:46:28.167Z,12.20
2022-09-23T21:49:02.147Z,12.20
2022-09-23T21:51:37.514Z,12.20
2022-09-23T21:54:05.661Z,12.10
2022-09-23T21:56:36.283Z,12.10
2022-09-23T21:59:05.273Z,12.10
2022-09-23T22:01:36.942Z,12.10
2022-09-23T22:04:10.097Z,12.10
2022-09-23T22:06:40.291Z,12.10
2022-09-23T22:09:11.927Z,12.10
2022-09-23T22:11:58.843Z,12.10
2022-09-23T22:14:26.719Z,12.10
2022-09-23T22:16:59.113Z,12.10
2022-09-23T22:19:34.661Z,12.10
2022-09-23T22:22:06.004Z,12.10
2022-09-23T22:24:33.318Z,12.10
2022-09-23T22:27:00.769Z,12.10
2022-09-23T22:29:46.970Z,12.00
2022-09-23T22:32:32.709Z,12.00
2022-09-23T22:35:00.185Z,12.00
2022-09-23T22:37:34.175Z,12.00
2022-09-23T22:40:07.286Z,12.00
2022-09-23T22:42:36.221Z,11.90
2022-09-23T22:45:07.342Z,11.80
2022-09-23T22:47:39.549Z,11.80
2022-09-23T22:50:08.822Z,11.80
2022-09-23T22:52:36.706Z,11.80
2022-09-23T22:55:04.877Z,11.70
2022-09-23T22:57:32.806Z,11.70
2022-09-23T23:00:00.611Z,11.70
2022-09-23T23:02:28.612Z,11.60
2022-09-23T23:04:56.124Z,11.60
2022-09-23T23:07:24.640Z,11.50
2022-09-23T23:09:52.855Z,11.50
2022-09-23T23:12:21.012Z,11.50
2022-09-23T23:14:49.346Z,11.50
2022-09-23T23:17:17.173Z,11.50
2022-09-23T23:19:45.037Z,11.50
2022-09-23T23:22:12.352Z,11.50
2022-09-23T23:24:40.084Z,11.40
2022-09-23T23:27:07.988Z,11.40
2022-09-23T23:29:35.926Z,11.40
2022-09-23T23:32:03.292Z,11.40
2022-09-23T23:34:30.614Z,11.40
2022-09-23T23:36:57.967Z,11.40
2022-09-23T23:39:26.349Z,11.40
2022-09-23T23:41:57.862Z,11.40
2022-09-23T23:44:26.356Z,11.40
2022-09-23T23:46:54.955Z,11.30
2022-09-23T23:49:22.837Z,11.30
2022-09-23T23:51:50.572Z,11.30
2022-09-23T23:54:18.297Z,11.30
2022-09-23T23:56:46.258Z,11.30
2022-09-23T23:59:13.670Z,11.40
